sensor_id;sensor_type;location;lat;lon;timestamp;temperature;humidity
52209;DHT22;38507;53.132;6.394;2023-06-05T00:01:13;11.10;99.90
52209;DHT22;38507;53.132;6.394;2023-06-05T00:03:39;11.20;99.90
52209;DHT22;38507;53.132;6.394;2023-06-05T00:06:05;11.40;99.90
52209;DHT22;38507;53.132;6.394;2023-06-05T00:08:33;10.80;99.90
52209;DHT22;38507;53.132;6.394;2023-06-05T00:10:59;11.10;99.90
52209;DHT22;38507;53.132;6.394;2023-06-05T00:13:25;11.20;99.90
52209;DHT22;38507;53.132;6.394;2023-06-05T00:15:50;10.90;99.90
52209;DHT22;38507;53.132;6.394;2023-06-05T00:18:17;10.90;99.90
52209;DHT22;38507;53.132;6.394;2023-06-05T00:20:43;10.90;99.90
52209;DHT22;38507;53.132;6.394;2023-06-05T00:23:09;10.90;99.90
52209;DHT22;38507;53.132;6.394;2023-06-05T00:25:36;10.90;99.90
52209;DHT22;38507;53.132;6.394;2023-06-05T00:28:02;11.30;99.90
52209;DHT22;38507;53.132;6.394;2023-06-05T00:30:28;11.30;99.90
52209;DHT22;38507;53.132;6.394;2023-06-05T00:32:54;10.90;99.90
52209;DHT22;38507;53.132;6.394;2023-06-05T00:35:20;10.90;99.90
52209;DHT22;38507;53.132;6.394;2023-06-05T00:37:46;11.30;99.90
52209;DHT22;38507;53.132;6.394;2023-06-05T00:40:12;11.00;99.90
52209;DHT22;38507;53.132;6.394;2023-06-05T00:42:38;11.00;99.90
52209;DHT22;38507;53.132;6.394;2023-06-05T00:45:04;11.10;99.90
52209;DHT22;38507;53.132;6.394;2023-06-05T00:47:31;11.00;99.90
52209;DHT22;38507;53.132;6.394;2023-06-05T00:49:58;10.90;99.90
52209;DHT22;38507;53.132;6.394;2023-06-05T00:52:24;11.00;99.90
52209;DHT22;38507;53.132;6.394;2023-06-05T00:54:51;11.00;99.90
52209;DHT22;38507;53.132;6.394;2023-06-05T00:57:16;11.10;99.90
52209;DHT22;38507;53.132;6.394;2023-06-05T00:59:42;11.00;99.90
52209;DHT22;38507;53.132;6.394;2023-06-05T01:02:11;11.00;99.90
52209;DHT22;38507;53.132;6.394;2023-06-05T01:04:39;11.10;99.90
52209;DHT22;38507;53.132;6.394;2023-06-05T01:07:10;10.90;99.90
52209;DHT22;38507;53.132;6.394;2023-06-05T01:09:37;11.00;99.90
52209;DHT22;38507;53.132;6.394;2023-06-05T01:12:26;11.00;99.90
52209;DHT22;38507;53.132;6.394;2023-06-05T01:14:49;11.00;99.90
52209;DHT22;38507;53.132;6.394;2023-06-05T01:17:16;11.00;99.90
52209;DHT22;38507;53.132;6.394;2023-06-05T01:19:44;11.20;99.90
52209;DHT22;38507;53.132;6.394;2023-06-05T01:22:11;11.20;99.90
52209;DHT22;38507;53.132;6.394;2023-06-05T01:24:38;11.00;99.90
52209;DHT22;38507;53.132;6.394;2023-06-05T01:27:19;11.00;99.90
52209;DHT22;38507;53.132;6.394;2023-06-05T01:30:03;11.00;99.90
52209;DHT22;38507;53.132;6.394;2023-06-05T01:35:12;11.00;99.90
52209;DHT22;38507;53.132;6.394;2023-06-05T01:37:44;11.30;99.90
52209;DHT22;38507;53.132;6.394;2023-06-05T01:40:20;10.70;99.90
52209;DHT22;38507;53.132;6.394;2023-06-05T01:42:47;11.10;99.90
52209;DHT22;38507;53.132;6.394;2023-06-05T01:45:14;11.10;99.90
52209;DHT22;38507;53.132;6.394;2023-06-05T01:47:41;11.10;99.90
52209;DHT22;38507;53.132;6.394;2023-06-05T01:50:08;11.10;99.90
52209;DHT22;38507;53.132;6.394;2023-06-05T01:52:37;11.10;99.90
52209;DHT22;38507;53.132;6.394;2023-06-05T01:55:06;11.00;99.90
52209;DHT22;38507;53.132;6.394;2023-06-05T01:57:31;11.10;99.90
52209;DHT22;38507;53.132;6.394;2023-06-05T02:00:00;11.20;99.90
52209;DHT22;38507;53.132;6.394;2023-06-05T02:02:28;11.10;99.90
52209;DHT22;38507;53.132;6.394;2023-06-05T02:04:54;11.10;99.90
52209;DHT22;38507;53.132;6.394;2023-06-05T02:07:20;11.10;99.90
52209;DHT22;38507;53.132;6.394;2023-06-05T02:09:47;11.20;99.90
52209;DHT22;38507;53.132;6.394;2023-06-05T02:12:12;11.20;99.90
52209;DHT22;38507;53.132;6.394;2023-06-05T02:14:39;11.20;99.90
52209;DHT22;38507;53.132;6.394;2023-06-05T02:17:11;11.20;99.90
52209;DHT22;38507;53.132;6.394;2023-06-05T02:19:39;11.50;99.90
52209;DHT22;38507;53.132;6.394;2023-06-05T02:22:06;11.50;99.90
52209;DHT22;38507;53.132;6.394;2023-06-05T02:24:33;11.60;99.90
52209;DHT22;38507;53.132;6.394;2023-06-05T02:26:58;11.20;99.90
52209;DHT22;38507;53.132;6.394;2023-06-05T02:29:24;11.30;99.90
52209;DHT22;38507;53.132;6.394;2023-06-05T02:31:50;11.30;99.90
52209;DHT22;38507;53.132;6.394;2023-06-05T02:34:15;11.20;99.90
52209;DHT22;38507;53.132;6.394;2023-06-05T02:36:43;11.30;99.90
52209;DHT22;38507;53.132;6.394;2023-06-05T02:39:11;11.20;99.90
52209;DHT22;38507;53.132;6.394;2023-06-05T02:41:37;11.20;99.90
52209;DHT22;38507;53.132;6.394;2023-06-05T02:44:03;11.30;99.90
52209;DHT22;38507;53.132;6.394;2023-06-05T02:46:29;11.30;99.90
52209;DHT22;38507;53.132;6.394;2023-06-05T02:48:54;11.30;99.90
52209;DHT22;38507;53.132;6.394;2023-06-05T02:51:20;11.30;99.90
52209;DHT22;38507;53.132;6.394;2023-06-05T02:53:46;11.30;99.90
52209;DHT22;38507;53.132;6.394;2023-06-05T02:56:11;11.30;99.90
52209;DHT22;38507;53.132;6.394;2023-06-05T02:58:38;11.30;99.90
52209;DHT22;38507;53.132;6.394;2023-06-05T03:01:05;11.40;99.90
52209;DHT22;38507;53.132;6.394;2023-06-05T03:03:32;11.60;99.90
52209;DHT22;38507;53.132;6.394;2023-06-05T03:05:59;11.40;99.90
52209;DHT22;38507;53.132;6.394;2023-06-05T03:08:33;11.30;99.90
52209;DHT22;38507;53.132;6.394;2023-06-05T03:11:08;11.30;99.90
52209;DHT22;38507;53.132;6.394;2023-06-05T03:13:33;11.60;99.90
52209;DHT22;38507;53.132;6.394;2023-06-05T03:15:59;11.60;99.90
52209;DHT22;38507;53.132;6.394;2023-06-05T03:18:29;11.40;99.90
52209;DHT22;38507;53.132;6.394;2023-06-05T03:20:55;11.70;99.90
52209;DHT22;38507;53.132;6.394;2023-06-05T03:23:25;11.70;99.90
52209;DHT22;38507;53.132;6.394;2023-06-05T03:25:51;11.50;99.90
52209;DHT22;38507;53.132;6.394;2023-06-05T03:28:17;11.50;99.90
52209;DHT22;38507;53.132;6.394;2023-06-05T03:30:46;11.70;99.90
52209;DHT22;38507;53.132;6.394;2023-06-05T03:33:13;11.60;99.90
52209;DHT22;38507;53.132;6.394;2023-06-05T03:35:39;11.60;99.90
52209;DHT22;38507;53.132;6.394;2023-06-05T03:38:05;11.70;99.90
52209;DHT22;38507;53.132;6.394;2023-06-05T03:40:31;11.60;99.90
52209;DHT22;38507;53.132;6.394;2023-06-05T03:42:57;11.70;99.90
52209;DHT22;38507;53.132;6.394;2023-06-05T03:45:23;11.60;99.90
52209;DHT22;38507;53.132;6.394;2023-06-05T03:47:52;11.70;99.90
52209;DHT22;38507;53.132;6.394;2023-06-05T03:50:17;11.90;99.90
52209;DHT22;38507;53.132;6.394;2023-06-05T03:52:43;11.70;99.90
52209;DHT22;38507;53.132;6.394;2023-06-05T03:55:09;11.80;99.90
52209;DHT22;38507;53.132;6.394;2023-06-05T03:57:38;11.70;99.90
52209;DHT22;38507;53.132;6.394;2023-06-05T04:00:06;11.80;99.90
52209;DHT22;38507;53.132;6.394;2023-06-05T04:02:35;11.70;99.90
52209;DHT22;38507;53.132;6.394;2023-06-05T04:05:02;11.70;99.90
52209;DHT22;38507;53.132;6.394;2023-06-05T04:07:29;11.80;99.90
52209;DHT22;38507;53.132;6.394;2023-06-05T04:09:55;12.10;99.90
52209;DHT22;38507;53.132;6.394;2023-06-05T04:12:21;11.80;99.90
52209;DHT22;38507;53.132;6.394;2023-06-05T04:14:47;11.80;99.90
52209;DHT22;38507;53.132;6.394;2023-06-05T04:17:12;11.80;99.90
52209;DHT22;38507;53.132;6.394;2023-06-05T04:19:39;11.90;99.90
52209;DHT22;38507;53.132;6.394;2023-06-05T04:22:06;11.90;99.90
52209;DHT22;38507;53.132;6.394;2023-06-05T04:24:31;11.90;99.90
52209;DHT22;38507;53.132;6.394;2023-06-05T04:26:57;11.90;99.90
52209;DHT22;38507;53.132;6.394;2023-06-05T04:29:26;11.90;99.90
52209;DHT22;38507;53.132;6.394;2023-06-05T04:31:52;12.00;99.90
52209;DHT22;38507;53.132;6.394;2023-06-05T04:34:18;12.00;99.90
52209;DHT22;38507;53.132;6.394;2023-06-05T04:36:44;12.00;99.90
52209;DHT22;38507;53.132;6.394;2023-06-05T04:39:12;12.00;99.90
52209;DHT22;38507;53.132;6.394;2023-06-05T04:41:44;12.00;99.90
52209;DHT22;38507;53.132;6.394;2023-06-05T04:44:15;12.00;99.90
52209;DHT22;38507;53.132;6.394;2023-06-05T04:46:44;12.10;99.90
52209;DHT22;38507;53.132;6.394;2023-06-05T04:49:11;12.20;99.90
52209;DHT22;38507;53.132;6.394;2023-06-05T04:51:37;12.10;99.90
52209;DHT22;38507;53.132;6.394;2023-06-05T04:54:03;12.10;99.90
52209;DHT22;38507;53.132;6.394;2023-06-05T04:56:29;12.20;99.90
52209;DHT22;38507;53.132;6.394;2023-06-05T04:58:54;12.20;99.90
52209;DHT22;38507;53.132;6.394;2023-06-05T05:01:21;12.60;99.90
52209;DHT22;38507;53.132;6.394;2023-06-05T05:03:46;12.20;99.90
52209;DHT22;38507;53.132;6.394;2023-06-05T05:06:17;12.20;99.90
52209;DHT22;38507;53.132;6.394;2023-06-05T05:08:43;12.20;99.90
52209;DHT22;38507;53.132;6.394;2023-06-05T05:11:12;12.50;99.90
52209;DHT22;38507;53.132;6.394;2023-06-05T05:13:38;12.50;99.90
52209;DHT22;38507;53.132;6.394;2023-06-05T05:16:04;12.30;99.90
52209;DHT22;38507;53.132;6.394;2023-06-05T05:18:30;12.40;99.90
52209;DHT22;38507;53.132;6.394;2023-06-05T05:20:56;12.40;99.90
52209;DHT22;38507;53.132;6.394;2023-06-05T05:23:21;12.40;99.90
52209;DHT22;38507;53.132;6.394;2023-06-05T05:25:48;12.50;99.90
52209;DHT22;38507;53.132;6.394;2023-06-05T05:28:13;12.50;99.90
52209;DHT22;38507;53.132;6.394;2023-06-05T05:30:39;12.50;99.90
52209;DHT22;38507;53.132;6.394;2023-06-05T05:33:05;12.60;99.90
52209;DHT22;38507;53.132;6.394;2023-06-05T05:35:30;12.70;99.90
52209;DHT22;38507;53.132;6.394;2023-06-05T05:37:56;12.70;99.90
52209;DHT22;38507;53.132;6.394;2023-06-05T05:40:22;12.80;99.90
52209;DHT22;38507;53.132;6.394;2023-06-05T05:42:48;12.90;99.90
52209;DHT22;38507;53.132;6.394;2023-06-05T05:45:14;12.90;99.90
52209;DHT22;38507;53.132;6.394;2023-06-05T05:47:39;13.00;99.90
52209;DHT22;38507;53.132;6.394;2023-06-05T05:50:06;13.00;99.90
52209;DHT22;38507;53.132;6.394;2023-06-05T05:52:32;13.10;99.90
52209;DHT22;38507;53.132;6.394;2023-06-05T05:54:58;13.10;99.90
52209;DHT22;38507;53.132;6.394;2023-06-05T05:57:25;13.10;99.90
52209;DHT22;38507;53.132;6.394;2023-06-05T05:59:51;13.20;99.90
52209;DHT22;38507;53.132;6.394;2023-06-05T06:02:16;13.20;99.90
52209;DHT22;38507;53.132;6.394;2023-06-05T06:04:42;13.20;99.90
52209;DHT22;38507;53.132;6.394;2023-06-05T06:07:11;13.30;99.90
52209;DHT22;38507;53.132;6.394;2023-06-05T06:09:37;13.30;99.90
52209;DHT22;38507;53.132;6.394;2023-06-05T06:12:03;13.40;99.90
52209;DHT22;38507;53.132;6.394;2023-06-05T06:14:32;13.40;99.90
52209;DHT22;38507;53.132;6.394;2023-06-05T06:16:57;13.40;99.90
52209;DHT22;38507;53.132;6.394;2023-06-05T06:19:24;13.50;99.90
52209;DHT22;38507;53.132;6.394;2023-06-05T06:21:51;13.60;99.90
52209;DHT22;38507;53.132;6.394;2023-06-05T06:24:19;13.60;99.90
52209;DHT22;38507;53.132;6.394;2023-06-05T06:26:46;13.70;99.90
52209;DHT22;38507;53.132;6.394;2023-06-05T06:29:14;13.80;99.90
52209;DHT22;38507;53.132;6.394;2023-06-05T06:31:41;13.80;99.90
52209;DHT22;38507;53.132;6.394;2023-06-05T06:34:08;13.90;99.90
52209;DHT22;38507;53.132;6.394;2023-06-05T06:36:35;13.90;99.90
52209;DHT22;38507;53.132;6.394;2023-06-05T06:39:06;14.00;99.90
52209;DHT22;38507;53.132;6.394;2023-06-05T06:41:33;14.20;99.90
52209;DHT22;38507;53.132;6.394;2023-06-05T06:44:00;14.30;99.90
52209;DHT22;38507;53.132;6.394;2023-06-05T06:46:26;14.40;99.90
52209;DHT22;38507;53.132;6.394;2023-06-05T06:48:51;14.50;99.90
52209;DHT22;38507;53.132;6.394;2023-06-05T06:51:17;14.50;99.90
52209;DHT22;38507;53.132;6.394;2023-06-05T06:53:43;14.60;99.90
52209;DHT22;38507;53.132;6.394;2023-06-05T06:56:09;14.60;99.90
52209;DHT22;38507;53.132;6.394;2023-06-05T06:58:35;15.00;99.90
52209;DHT22;38507;53.132;6.394;2023-06-05T07:01:02;15.20;99.90
52209;DHT22;38507;53.132;6.394;2023-06-05T07:03:28;15.30;99.90
52209;DHT22;38507;53.132;6.394;2023-06-05T07:05:54;15.60;99.90
52209;DHT22;38507;53.132;6.394;2023-06-05T07:08:20;15.80;99.90
52209;DHT22;38507;53.132;6.394;2023-06-05T07:10:45;15.80;99.90
52209;DHT22;38507;53.132;6.394;2023-06-05T07:13:11;16.10;99.90
52209;DHT22;38507;53.132;6.394;2023-06-05T07:15:37;16.40;99.90
52209;DHT22;38507;53.132;6.394;2023-06-05T07:18:03;16.60;99.90
52209;DHT22;38507;53.132;6.394;2023-06-05T07:20:28;16.90;99.90
52209;DHT22;38507;53.132;6.394;2023-06-05T07:22:54;17.20;99.90
52209;DHT22;38507;53.132;6.394;2023-06-05T07:25:20;17.30;99.90
52209;DHT22;38507;53.132;6.394;2023-06-05T07:27:48;17.20;99.90
52209;DHT22;38507;53.132;6.394;2023-06-05T07:30:13;17.40;99.90
52209;DHT22;38507;53.132;6.394;2023-06-05T07:32:40;17.50;99.90
52209;DHT22;38507;53.132;6.394;2023-06-05T07:35:08;17.60;99.90
52209;DHT22;38507;53.132;6.394;2023-06-05T07:37:34;17.90;99.90
52209;DHT22;38507;53.132;6.394;2023-06-05T07:40:00;17.80;99.90
52209;DHT22;38507;53.132;6.394;2023-06-05T07:42:26;17.70;99.90
52209;DHT22;38507;53.132;6.394;2023-06-05T07:44:51;17.80;99.90
52209;DHT22;38507;53.132;6.394;2023-06-05T07:47:17;17.90;99.90
52209;DHT22;38507;53.132;6.394;2023-06-05T07:49:43;17.90;99.90
52209;DHT22;38507;53.132;6.394;2023-06-05T07:52:08;17.90;99.90
52209;DHT22;38507;53.132;6.394;2023-06-05T07:54:34;18.10;99.90
52209;DHT22;38507;53.132;6.394;2023-06-05T07:57:00;18.10;99.90
52209;DHT22;38507;53.132;6.394;2023-06-05T07:59:25;18.20;99.90
52209;DHT22;38507;53.132;6.394;2023-06-05T08:01:53;18.50;99.90
52209;DHT22;38507;53.132;6.394;2023-06-05T08:04:19;18.50;99.90
52209;DHT22;38507;53.132;6.394;2023-06-05T08:06:45;18.70;99.90
52209;DHT22;38507;53.132;6.394;2023-06-05T08:09:11;18.80;99.90
52209;DHT22;38507;53.132;6.394;2023-06-05T08:11:38;19.00;99.90
52209;DHT22;38507;53.132;6.394;2023-06-05T08:14:07;19.00;99.90
52209;DHT22;38507;53.132;6.394;2023-06-05T08:16:34;19.00;99.90
52209;DHT22;38507;53.132;6.394;2023-06-05T08:19:00;19.20;99.90
52209;DHT22;38507;53.132;6.394;2023-06-05T08:21:25;19.20;99.90
52209;DHT22;38507;53.132;6.394;2023-06-05T08:23:51;19.30;99.90
52209;DHT22;38507;53.132;6.394;2023-06-05T08:26:20;19.40;99.90
52209;DHT22;38507;53.132;6.394;2023-06-05T08:28:48;19.30;99.90
52209;DHT22;38507;53.132;6.394;2023-06-05T08:31:14;19.10;99.90
52209;DHT22;38507;53.132;6.394;2023-06-05T08:33:41;19.30;99.90
52209;DHT22;38507;53.132;6.394;2023-06-05T08:36:07;19.30;99.90
52209;DHT22;38507;53.132;6.394;2023-06-05T08:38:33;19.10;99.90
52209;DHT22;38507;53.132;6.394;2023-06-05T08:41:05;19.40;99.90
52209;DHT22;38507;53.132;6.394;2023-06-05T08:43:36;19.50;99.90
52209;DHT22;38507;53.132;6.394;2023-06-05T08:46:04;19.40;99.90
52209;DHT22;38507;53.132;6.394;2023-06-05T08:48:32;19.40;99.90
52209;DHT22;38507;53.132;6.394;2023-06-05T08:51:00;19.40;99.90
52209;DHT22;38507;53.132;6.394;2023-06-05T08:53:30;19.50;99.90
52209;DHT22;38507;53.132;6.394;2023-06-05T08:55:57;19.50;99.90
52209;DHT22;38507;53.132;6.394;2023-06-05T08:58:24;19.70;99.90
52209;DHT22;38507;53.132;6.394;2023-06-05T09:00:50;19.90;99.90
52209;DHT22;38507;53.132;6.394;2023-06-05T09:03:16;20.10;99.90
52209;DHT22;38507;53.132;6.394;2023-06-05T09:05:46;20.10;99.90
52209;DHT22;38507;53.132;6.394;2023-06-05T09:08:13;20.30;99.90
52209;DHT22;38507;53.132;6.394;2023-06-05T09:10:39;20.50;99.90
52209;DHT22;38507;53.132;6.394;2023-06-05T09:13:05;20.60;99.90
52209;DHT22;38507;53.132;6.394;2023-06-05T09:15:33;20.50;99.90
52209;DHT22;38507;53.132;6.394;2023-06-05T09:20:35;20.90;99.90
52209;DHT22;38507;53.132;6.394;2023-06-05T09:23:02;20.90;99.90
52209;DHT22;38507;53.132;6.394;2023-06-05T09:25:47;21.10;99.90
52209;DHT22;38507;53.132;6.394;2023-06-05T09:28:16;21.40;99.90
52209;DHT22;38507;53.132;6.394;2023-06-05T09:30:58;21.60;99.90
52209;DHT22;38507;53.132;6.394;2023-06-05T09:33:26;21.60;99.90
52209;DHT22;38507;53.132;6.394;2023-06-05T09:36:09;21.70;99.90
52209;DHT22;38507;53.132;6.394;2023-06-05T09:38:36;21.90;99.90
52209;DHT22;38507;53.132;6.394;2023-06-05T09:41:10;21.70;99.90
52209;DHT22;38507;53.132;6.394;2023-06-05T09:43:37;21.90;99.90
52209;DHT22;38507;53.132;6.394;2023-06-05T09:46:13;21.90;99.90
52209;DHT22;38507;53.132;6.394;2023-06-05T09:48:40;21.90;99.30
52209;DHT22;38507;53.132;6.394;2023-06-05T09:51:16;22.00;99.90
52209;DHT22;38507;53.132;6.394;2023-06-05T09:53:50;22.10;99.90
52209;DHT22;38507;53.132;6.394;2023-06-05T09:56:18;22.20;99.90
52209;DHT22;38507;53.132;6.394;2023-06-05T09:58:49;22.30;99.90
52209;DHT22;38507;53.132;6.394;2023-06-05T10:01:24;22.30;99.70
52209;DHT22;38507;53.132;6.394;2023-06-05T10:03:57;22.30;99.90
52209;DHT22;38507;53.132;6.394;2023-06-05T10:06:27;22.40;99.80
52209;DHT22;38507;53.132;6.394;2023-06-05T10:08:54;22.50;99.40
52209;DHT22;38507;53.132;6.394;2023-06-05T10:11:24;22.40;99.70
52209;DHT22;38507;53.132;6.394;2023-06-05T10:13:50;22.50;99.80
52209;DHT22;38507;53.132;6.394;2023-06-05T10:16:17;22.40;99.90
52209;DHT22;38507;53.132;6.394;2023-06-05T10:18:47;22.50;98.90
52209;DHT22;38507;53.132;6.394;2023-06-05T10:21:15;22.50;98.90
52209;DHT22;38507;53.132;6.394;2023-06-05T10:23:47;22.60;99.50
52209;DHT22;38507;53.132;6.394;2023-06-05T10:27:08;22.70;99.50
52209;DHT22;38507;53.132;6.394;2023-06-05T10:32:34;22.80;98.60
52209;DHT22;38507;53.132;6.394;2023-06-05T10:40:20;22.70;97.80
52209;DHT22;38507;53.132;6.394;2023-06-05T10:42:47;22.70;98.70
52209;DHT22;38507;53.132;6.394;2023-06-05T10:45:12;22.90;98.90
52209;DHT22;38507;53.132;6.394;2023-06-05T10:52:45;23.00;97.80
52209;DHT22;38507;53.132;6.394;2023-06-05T10:55:12;23.10;98.50
52209;DHT22;38507;53.132;6.394;2023-06-05T10:58:04;23.10;98.40
52209;DHT22;38507;53.132;6.394;2023-06-05T11:00:33;23.20;97.70
52209;DHT22;38507;53.132;6.394;2023-06-05T11:03:00;23.40;98.40
52209;DHT22;38507;53.132;6.394;2023-06-05T11:05:27;23.40;98.40
52209;DHT22;38507;53.132;6.394;2023-06-05T11:11:05;23.30;97.40
52209;DHT22;38507;53.132;6.394;2023-06-05T11:16:30;23.40;97.00
52209;DHT22;38507;53.132;6.394;2023-06-05T11:22:10;23.50;97.60
52209;DHT22;38507;53.132;6.394;2023-06-05T11:24:39;23.50;97.20
52209;DHT22;38507;53.132;6.394;2023-06-05T11:27:05;23.50;97.90
52209;DHT22;38507;53.132;6.394;2023-06-05T11:29:34;23.60;97.70
52209;DHT22;38507;53.132;6.394;2023-06-05T11:32:00;23.60;97.80
52209;DHT22;38507;53.132;6.394;2023-06-05T11:34:26;23.60;97.80
52209;DHT22;38507;53.132;6.394;2023-06-05T11:36:55;23.50;97.40
52209;DHT22;38507;53.132;6.394;2023-06-05T11:39:21;23.50;97.40
52209;DHT22;38507;53.132;6.394;2023-06-05T11:41:48;23.70;97.70
52209;DHT22;38507;53.132;6.394;2023-06-05T11:44:16;23.70;97.30
52209;DHT22;38507;53.132;6.394;2023-06-05T11:46:54;23.70;97.20
52209;DHT22;38507;53.132;6.394;2023-06-05T11:49:24;23.80;97.60
52209;DHT22;38507;53.132;6.394;2023-06-05T11:51:51;23.80;97.30
52209;DHT22;38507;53.132;6.394;2023-06-05T11:54:30;23.90;97.20
52209;DHT22;38507;53.132;6.394;2023-06-05T11:57:00;23.80;96.60
52209;DHT22;38507;53.132;6.394;2023-06-05T11:59:34;23.70;97.30
52209;DHT22;38507;53.132;6.394;2023-06-05T12:01:59;23.80;97.00
52209;DHT22;38507;53.132;6.394;2023-06-05T12:04:25;23.80;97.00
52209;DHT22;38507;53.132;6.394;2023-06-05T12:06:51;23.80;97.20
52209;DHT22;38507;53.132;6.394;2023-06-05T12:09:19;24.00;96.90
52209;DHT22;38507;53.132;6.394;2023-06-05T12:11:45;23.90;97.00
52209;DHT22;38507;53.132;6.394;2023-06-05T12:14:12;23.90;96.80
52209;DHT22;38507;53.132;6.394;2023-06-05T12:16:41;24.00;96.80
52209;DHT22;38507;53.132;6.394;2023-06-05T12:19:16;23.90;96.60
52209;DHT22;38507;53.132;6.394;2023-06-05T12:21:47;23.90;96.50
52209;DHT22;38507;53.132;6.394;2023-06-05T12:24:13;24.00;96.90
52209;DHT22;38507;53.132;6.394;2023-06-05T12:26:56;24.10;97.00
52209;DHT22;38507;53.132;6.394;2023-06-05T12:29:52;24.10;96.40
52209;DHT22;38507;53.132;6.394;2023-06-05T12:32:24;24.00;96.10
52209;DHT22;38507;53.132;6.394;2023-06-05T12:34:51;24.10;96.80
52209;DHT22;38507;53.132;6.394;2023-06-05T12:37:27;24.20;96.90
52209;DHT22;38507;53.132;6.394;2023-06-05T12:39:58;24.10;95.70
52209;DHT22;38507;53.132;6.394;2023-06-05T12:42:24;24.10;96.50
52209;DHT22;38507;53.132;6.394;2023-06-05T12:44:50;24.20;96.70
52209;DHT22;38507;53.132;6.394;2023-06-05T12:47:16;23.90;96.40
52209;DHT22;38507;53.132;6.394;2023-06-05T12:49:42;24.00;96.80
52209;DHT22;38507;53.132;6.394;2023-06-05T12:52:08;23.90;96.20
52209;DHT22;38507;53.132;6.394;2023-06-05T12:54:36;23.70;96.90
52209;DHT22;38507;53.132;6.394;2023-06-05T12:57:01;23.80;96.20
52209;DHT22;38507;53.132;6.394;2023-06-05T12:59:27;23.80;96.40
52209;DHT22;38507;53.132;6.394;2023-06-05T13:01:53;23.90;96.60
52209;DHT22;38507;53.132;6.394;2023-06-05T13:04:19;23.90;96.80
52209;DHT22;38507;53.132;6.394;2023-06-05T13:06:44;24.10;96.60
52209;DHT22;38507;53.132;6.394;2023-06-05T13:09:12;23.90;96.40
52209;DHT22;38507;53.132;6.394;2023-06-05T13:11:38;23.70;96.20
52209;DHT22;38507;53.132;6.394;2023-06-05T13:14:03;23.80;96.50
52209;DHT22;38507;53.132;6.394;2023-06-05T13:16:29;23.80;96.30
52209;DHT22;38507;53.132;6.394;2023-06-05T13:18:55;23.50;96.50
52209;DHT22;38507;53.132;6.394;2023-06-05T13:21:21;23.80;96.70
52209;DHT22;38507;53.132;6.394;2023-06-05T13:23:46;23.80;96.40
52209;DHT22;38507;53.132;6.394;2023-06-05T13:26:12;23.60;96.50
52209;DHT22;38507;53.132;6.394;2023-06-05T13:28:38;23.70;96.60
52209;DHT22;38507;53.132;6.394;2023-06-05T13:31:03;23.70;96.50
52209;DHT22;38507;53.132;6.394;2023-06-05T13:33:31;23.70;96.20
52209;DHT22;38507;53.132;6.394;2023-06-05T13:35:59;23.70;96.30
52209;DHT22;38507;53.132;6.394;2023-06-05T13:38:26;23.70;96.30
52209;DHT22;38507;53.132;6.394;2023-06-05T13:40:52;23.80;96.40
52209;DHT22;38507;53.132;6.394;2023-06-05T13:43:18;23.70;96.50
52209;DHT22;38507;53.132;6.394;2023-06-05T13:45:44;23.70;96.10
52209;DHT22;38507;53.132;6.394;2023-06-05T13:48:10;23.80;96.10
52209;DHT22;38507;53.132;6.394;2023-06-05T13:50:35;23.70;96.30
52209;DHT22;38507;53.132;6.394;2023-06-05T13:53:01;23.80;96.50
52209;DHT22;38507;53.132;6.394;2023-06-05T13:55:27;23.60;96.20
52209;DHT22;38507;53.132;6.394;2023-06-05T13:57:52;23.80;96.30
52209;DHT22;38507;53.132;6.394;2023-06-05T14:00:18;23.80;96.40
52209;DHT22;38507;53.132;6.394;2023-06-05T14:02:45;23.80;96.40
52209;DHT22;38507;53.132;6.394;2023-06-05T14:05:12;23.80;96.30
52209;DHT22;38507;53.132;6.394;2023-06-05T14:07:37;23.70;96.00
52209;DHT22;38507;53.132;6.394;2023-06-05T14:10:03;23.50;96.10
52209;DHT22;38507;53.132;6.394;2023-06-05T14:12:30;23.50;96.10
52209;DHT22;38507;53.132;6.394;2023-06-05T14:14:56;23.50;95.90
52209;DHT22;38507;53.132;6.394;2023-06-05T14:17:22;23.50;96.10
52209;DHT22;38507;53.132;6.394;2023-06-05T14:19:48;23.40;96.10
52209;DHT22;38507;53.132;6.394;2023-06-05T14:22:13;23.30;95.70
52209;DHT22;38507;53.132;6.394;2023-06-05T14:24:39;23.30;95.90
52209;DHT22;38507;53.132;6.394;2023-06-05T14:27:05;23.20;96.00
52209;DHT22;38507;53.132;6.394;2023-06-05T14:29:31;23.30;95.90
52209;DHT22;38507;53.132;6.394;2023-06-05T14:31:57;23.40;96.30
52209;DHT22;38507;53.132;6.394;2023-06-05T14:34:23;23.20;96.10
52209;DHT22;38507;53.132;6.394;2023-06-05T14:36:48;23.20;95.90
52209;DHT22;38507;53.132;6.394;2023-06-05T14:39:17;23.30;96.00
52209;DHT22;38507;53.132;6.394;2023-06-05T14:41:44;23.10;95.90
52209;DHT22;38507;53.132;6.394;2023-06-05T14:44:10;23.30;96.00
52209;DHT22;38507;53.132;6.394;2023-06-05T14:46:35;23.20;96.10
52209;DHT22;38507;53.132;6.394;2023-06-05T14:49:01;23.10;96.00
52209;DHT22;38507;53.132;6.394;2023-06-05T14:51:26;23.20;95.90
52209;DHT22;38507;53.132;6.394;2023-06-05T14:53:52;22.90;95.90
52209;DHT22;38507;53.132;6.394;2023-06-05T14:56:18;23.00;96.00
52209;DHT22;38507;53.132;6.394;2023-06-05T14:58:43;23.00;96.00
52209;DHT22;38507;53.132;6.394;2023-06-05T15:01:09;23.20;96.10
52209;DHT22;38507;53.132;6.394;2023-06-05T15:03:34;23.20;96.20
52209;DHT22;38507;53.132;6.394;2023-06-05T15:06:00;23.20;96.20
52209;DHT22;38507;53.132;6.394;2023-06-05T15:08:26;23.10;96.00
52209;DHT22;38507;53.132;6.394;2023-06-05T15:10:51;23.20;96.20
52209;DHT22;38507;53.132;6.394;2023-06-05T15:13:17;23.20;96.10
52209;DHT22;38507;53.132;6.394;2023-06-05T15:15:43;23.10;96.20
52209;DHT22;38507;53.132;6.394;2023-06-05T15:18:08;22.90;95.90
52209;DHT22;38507;53.132;6.394;2023-06-05T15:20:34;22.90;96.30
52209;DHT22;38507;53.132;6.394;2023-06-05T15:22:59;22.80;96.20
52209;DHT22;38507;53.132;6.394;2023-06-05T15:25:25;22.80;96.30
52209;DHT22;38507;53.132;6.394;2023-06-05T15:27:52;22.70;96.10
52209;DHT22;38507;53.132;6.394;2023-06-05T15:30:19;22.70;96.10
52209;DHT22;38507;53.132;6.394;2023-06-05T15:32:45;22.70;96.00
52209;DHT22;38507;53.132;6.394;2023-06-05T15:35:11;22.60;96.20
52209;DHT22;38507;53.132;6.394;2023-06-05T15:37:37;22.60;96.10
52209;DHT22;38507;53.132;6.394;2023-06-05T15:40:03;22.60;96.20
52209;DHT22;38507;53.132;6.394;2023-06-05T15:42:34;22.40;96.30
52209;DHT22;38507;53.132;6.394;2023-06-05T15:45:13;22.40;96.50
52209;DHT22;38507;53.132;6.394;2023-06-05T15:47:41;22.40;96.20
52209;DHT22;38507;53.132;6.394;2023-06-05T15:50:08;22.50;96.60
52209;DHT22;38507;53.132;6.394;2023-06-05T15:52:35;22.50;96.30
52209;DHT22;38507;53.132;6.394;2023-06-05T15:55:01;22.40;96.70
52209;DHT22;38507;53.132;6.394;2023-06-05T15:57:27;22.60;96.30
52209;DHT22;38507;53.132;6.394;2023-06-05T15:59:53;22.30;96.20